Unser Platzwetter:
(um das Bild zu aktualisieren oder bei unvollständig geladenem Bild den Reload-Button des Browsers drücken)

 

 
[Quelle: ADDS]
METAR
ETNN 150820Z 16008KT 9999 SCT120 18/09 Q1013 BLU+ =
TAF
SR / SS: 05:56 / 16:40 UTC (Vettweiss-Soller 2018-10-15)
 

Hier gibt es ein Wetterdiagramm der letzten 7 Tage.

Hier geht es zu unserer Webcam.

Satelitenbild:

aktuelles Meteosat-Bild von www.wetterzentrale.de